Fish Camp, California
Current Conditions -  °F | °C
As of 8:53 PM on Friday 24 Oct 2014 (Local Time) from KMAE Reporting Station
Clear Clear  
Wind Chill: 70°   Ceiling: Unl
Heat Index: 70°   Visibility: 10mi
Dew Point: 45°   Wind: 8mph
Humidity: 41%   Direction: 150°SSE
Pressure: 29.89"   Gusts: NA
Location:  37.48°N, 119.64°W
Report Text: KMAE 250353Z AUTO 15007KT 10SM CLR 21/07 A2989 RMK AO2 SLP119 T02110072
Loading
Personal Weather Stations






























Interactive Weather Map
Tropical Storm Tracking
New forecast layout! Learn more

10-Day Weather Forecast

Advertisements
Track Severe Weather on mobile